Time;durP1;ratioP1;P1;durP2;ratioP2;P2;SDS_P1;SDS_P2;PMS_P1;PMS_P2;Temp;Humidity;BMP_temperature;BMP_pressure;BME280_temperature;BME280_humidity;BME280_pressure;Samples;Min_cycle;Max_cycle;Signal;HPM_P1;HPM_P2
2023/03/29 00:04:40;;;;;;;;;;;;;;;5.49;80.7002;101664.9;;;;-75
2023/03/29 00:09:43;;;;;;;;;;;;;;;5.51;81.58008;101651.3;;;;-76
2023/03/29 00:14:41;;;;;;;;;;;;;;;5.5;82.06934;101646.5;;;;-75
2023/03/29 00:15:52;;;;;;;3.9;1.7;;;;;;;;;;;;;-75
2023/03/29 00:19:40;;;;;;;;;;;;;;;5.5;81.53418;101635.1;;;;-74
2023/03/29 00:24:40;;;;;;;;;;;;;;;5.5;80.46289;101631.6;;;;-74
2023/03/29 00:29:40;;;;;;;;;;;;;;;5.5;81.38086;101625.9;;;;-74
2023/03/29 00:34:41;;;;;;;;;;;;;;;5.51;81.32813;101616.3;;;;-75
2023/03/29 00:39:44;;;;;;;;;;;;;;;5.51;81.15527;101608.7;;;;-76
2023/03/29 00:44:51;;;;;;;;;;;;;;;5.51;80.94531;101608.7;;;;-76
2023/03/29 00:45:54;;;;;;;4.4;1.9;;;;;;;;;;;;;-75
2023/03/29 00:49:43;;;;;;;;;;;;;;;5.51;81.19727;101600.6;;;;-75
2023/03/29 00:54:42;;;;;;;;;;;;;;;5.5;81.52344;101596.2;;;;-75
2023/03/29 00:59:42;;;;;;;;;;;;;;;5.5;81.50195;101585.8;;;;-74
2023/03/29 01:04:46;;;;;;;;;;;;;;;5.52;81.33008;101589;;;;-76
2023/03/29 01:09:42;;;;;;;;;;;;;;;5.52;81.31934;101593.5;;;;-75
2023/03/29 01:14:44;;;;;;;;;;;;;;;5.53;81.48438;101588.5;;;;-74
2023/03/29 01:15:54;;;;;;;5.1;2;;;;;;;;;;;;;-75
2023/03/29 01:19:43;;;;;;;;;;;;;;;5.55;81.76172;101584.1;;;;-75
2023/03/29 01:24:45;;;;;;;;;;;;;;;5.55;81.75098;101572.2;;;;-74
2023/03/29 01:29:48;;;;;;;;;;;;;;;5.54;81.4209;101574.7;;;;-75
2023/03/29 01:34:44;;;;;;;;;;;;;;;5.53;81.35352;101574.9;;;;-74
2023/03/29 01:39:45;;;;;;;;;;;;;;;5.54;81.39941;101565.5;;;;-74
2023/03/29 01:44:49;;;;;;;;;;;;;;;5.53;81.39746;101553.5;;;;-75
2023/03/29 01:45:59;;;;;;;5.6;2.1;;;;;;;;;;;;;-75
2023/03/29 01:49:44;;;;;;;;;;;;;;;5.54;81.26758;101554.6;;;;-74
2023/03/29 01:54:43;;;;;;;;;;;;;;;5.54;81.61914;101549.7;;;;-73
2023/03/29 01:59:43;;;;;;;;;;;;;;;5.55;81.18262;101543.9;;;;-75
2023/03/29 02:04:46;;;;;;;;;;;;;;;5.56;81.17285;101548.4;;;;-75
2023/03/29 02:09:43;;;;;;;;;;;;;;;5.57;81.22949;101538;;;;-75
2023/03/29 02:14:40;;;;;;;;;;;;;;;5.58;81.65918;101537.9;;;;-75
2023/03/29 02:15:55;;;;;;;5.5;2.3;;;;;;;;;;;;;-74
2023/03/29 02:19:40;;;;;;;;;;;;;;;5.6;81.62988;101530.9;;;;-74
2023/03/29 02:24:48;;;;;;;;;;;;;;;5.61;81.5459;101523.6;;;;-76
2023/03/29 02:29:45;;;;;;;;;;;;;;;5.63;81.50391;101521.5;;;;-74
2023/03/29 02:34:43;;;;;;;;;;;;;;;5.65;81.55078;101512;;;;-74
2023/03/29 02:39:41;;;;;;;;;;;;;;;5.67;81.58691;101509;;;;-75
2023/03/29 02:44:42;;;;;;;;;;;;;;;5.7;81.91113;101500.4;;;;-75
2023/03/29 02:45:57;;;;;;;6.1;2.5;;;;;;;;;;;;;-74
2023/03/29 02:49:40;;;;;;;;;;;;;;;5.73;82.47168;101505;;;;-76
2023/03/29 02:54:42;;;;;;;;;;;;;;;5.73;81.67578;101493.5;;;;-75
2023/03/29 02:59:42;;;;;;;;;;;;;;;5.76;81.76855;101482.8;;;;-75
2023/03/29 03:04:50;;;;;;;;;;;;;;;5.78;81.73926;101472;;;;-75
2023/03/29 03:09:40;;;;;;;;;;;;;;;5.79;81.89746;101471;;;;-75
2023/03/29 03:14:40;;;;;;;;;;;;;;;5.82;82.09766;101464.2;;;;-75
2023/03/29 03:15:56;;;;;;;6.5;2.6;;;;;;;;;;;;;-75
2023/03/29 03:19:42;;;;;;;;;;;;;;;5.82;81.78027;101467;;;;-76
2023/03/29 03:24:40;;;;;;;;;;;;;;;5.84;81.9043;101469.1;;;;-75
2023/03/29 03:29:43;;;;;;;;;;;;;;;5.85;81.69824;101464.7;;;;-75
2023/03/29 03:34:40;;;;;;;;;;;;;;;5.86;81.73438;101459.1;;;;-76
2023/03/29 03:39:42;;;;;;;;;;;;;;;5.88;81.97656;101454.3;;;;-74
2023/03/29 03:44:42;;;;;;;;;;;;;;;5.89;81.82715;101460.9;;;;-75
2023/03/29 03:45:56;;;;;;;6.9;2.9;;;;;;;;;;;;;-74
2023/03/29 03:49:44;;;;;;;;;;;;;;;5.91;82.0166;101459.3;;;;-76
2023/03/29 03:54:40;;;;;;;;;;;;;;;5.93;81.74609;101457.6;;;;-75
2023/03/29 03:59:48;;;;;;;;;;;;;;;5.96;82.48438;101459.2;;;;-74
2023/03/29 04:04:40;;;;;;;;;;;;;;;5.98;82.67578;101460.9;;;;-74
2023/03/29 04:09:40;;;;;;;;;;;;;;;5.99;82.49121;101451;;;;-76
2023/03/29 04:14:41;;;;;;;;;;;;;;;6.01;82.63477;101453.5;;;;-75
2023/03/29 04:15:59;;;;;;;6.7;3;;;;;;;;;;;;;-76
2023/03/29 04:19:40;;;;;;;;;;;;;;;6.04;83.57422;101450.8;;;;-76
2023/03/29 04:24:40;;;;;;;;;;;;;;;6.03;82.88281;101449.4;;;;-75
2023/03/29 04:29:43;;;;;;;;;;;;;;;6.04;82.70801;101444.8;;;;-75
2023/03/29 04:34:44;;;;;;;;;;;;;;;6.04;82.63281;101428.4;;;;-74
2023/03/29 04:39:43;;;;;;;;;;;;;;;6.05;82.61328;101427.3;;;;-75
2023/03/29 04:44:42;;;;;;;;;;;;;;;6.08;82.62695;101422.8;;;;-74
2023/03/29 04:45:57;;;;;;;8.3;3.4;;;;;;;;;;;;;-76
2023/03/29 04:49:40;;;;;;;;;;;;;;;6.08;82.58496;101416.2;;;;-75
2023/03/29 04:54:42;;;;;;;;;;;;;;;6.1;82.58691;101429.2;;;;-75
2023/03/29 04:59:41;;;;;;;;;;;;;;;6.09;82.6416;101422.1;;;;-75
2023/03/29 05:04:41;;;;;;;;;;;;;;;6.09;82.51074;101423.7;;;;-75
2023/03/29 05:09:40;;;;;;;;;;;;;;;6.11;82.5791;101431.2;;;;-75
2023/03/29 05:14:40;;;;;;;;;;;;;;;6.11;82.45703;101429.6;;;;-73
2023/03/29 05:16:00;;;;;;;8;3.4;;;;;;;;;;;;;-74
2023/03/29 05:19:40;;;;;;;;;;;;;;;6.11;82.68848;101431;;;;-75
2023/03/29 05:24:40;;;;;;;;;;;;;;;6.11;82.45898;101431;;;;-74
2023/03/29 05:29:40;;;;;;;;;;;;;;;6.11;82.53711;101432.2;;;;-75
2023/03/29 05:34:39;;;;;;;;;;;;;;;6.12;82.35156;101433.3;;;;-76
2023/03/29 05:39:40;;;;;;;;;;;;;;;6.14;82.65234;101431.9;;;;-75
2023/03/29 05:44:40;;;;;;;;;;;;;;;6.15;82.67578;101426.8;;;;-74
2023/03/29 05:45:59;;;;;;;6.8;3.4;;;;;;;;;;;;;-74
2023/03/29 05:49:41;;;;;;;;;;;;;;;6.17;82.31836;101422;;;;-73
2023/03/29 05:54:40;;;;;;;;;;;;;;;6.21;82.86133;101417.2;;;;-74
2023/03/29 05:59:42;;;;;;;;;;;;;;;6.24;82.97754;101420.1;;;;-74
2023/03/29 06:04:40;;;;;;;;;;;;;;;6.3;83.43555;101416.9;;;;-74
2023/03/29 06:09:40;;;;;;;;;;;;;;;6.36;83.73242;101430.5;;;;-74
2023/03/29 06:14:40;;;;;;;;;;;;;;;6.41;83.55664;101433.2;;;;-75
2023/03/29 06:15:59;;;;;;;8.2;4;;;;;;;;;;;;;-74
2023/03/29 06:19:40;;;;;;;;;;;;;;;6.48;84.1709;101433.8;;;;-74
2023/03/29 06:24:40;;;;;;;;;;;;;;;6.54;84.36914;101441;;;;-73
2023/03/29 06:29:40;;;;;;;;;;;;;;;6.56;84.00293;101438.1;;;;-74
2023/03/29 06:34:40;;;;;;;;;;;;;;;6.63;84.25391;101440.7;;;;-75
2023/03/29 06:39:40;;;;;;;;;;;;;;;6.68;83.91602;101444.1;;;;-76
2023/03/29 06:44:44;;;;;;;;;;;;;;;6.78;84.1748;101437.4;;;;-75
2023/03/29 06:46:02;;;;;;;8.3;4.3;;;;;;;;;;;;;-75
2023/03/29 06:49:42;;;;;;;;;;;;;;;6.84;84.08984;101437.5;;;;-74
2023/03/29 06:54:40;;;;;;;;;;;;;;;6.91;83.94922;101443;;;;-74
2023/03/29 06:59:40;;;;;;;;;;;;;;;6.99;83.75488;101445.2;;;;-75
2023/03/29 07:04:40;;;;;;;;;;;;;;;7.07;84.34082;101448.9;;;;-73
2023/03/29 07:09:40;;;;;;;;;;;;;;;7.18;84.84375;101458.8;;;;-74
2023/03/29 07:14:40;;;;;;;;;;;;;;;7.26;85.35547;101449.6;;;;-76
2023/03/29 07:16:01;;;;;;;11.5;4.9;;;;;;;;;;;;;-74
2023/03/29 07:19:40;;;;;;;;;;;;;;;7.35;85.42578;101443.6;;;;-75
2023/03/29 07:24:40;;;;;;;;;;;;;;;7.45;85.54492;101437.3;;;;-75
2023/03/29 07:29:40;;;;;;;;;;;;;;;7.54;85.33203;101439.9;;;;-75
2023/03/29 07:34:40;;;;;;;;;;;;;;;7.64;85.30762;101449.3;;;;-74
2023/03/29 07:39:45;;;;;;;;;;;;;;;7.74;84.58105;101455.7;;;;-74
2023/03/29 07:44:40;;;;;;;;;;;;;;;7.84;84.27148;101465.1;;;;-74
2023/03/29 07:46:08;;;;;;;12.5;4.8;;;;;;;;;;;;;-75
2023/03/29 07:49:41;;;;;;;;;;;;;;;7.93;84.36523;101466.3;;;;-76
2023/03/29 07:54:41;;;;;;;;;;;;;;;8.01;84.11816;101468;;;;-74
2023/03/29 07:59:39;;;;;;;;;;;;;;;8.12;83.85352;101468.6;;;;-74
2023/03/29 08:04:40;;;;;;;;;;;;;;;8.21;83.87109;101468.8;;;;-74
2023/03/29 08:09:42;;;;;;;;;;;;;;;8.35;83.91699;101461;;;;-73
2023/03/29 08:14:42;;;;;;;;;;;;;;;8.45;84.39844;101459.9;;;;-75
2023/03/29 08:16:03;;;;;;;13.4;5.7;;;;;;;;;;;;;-76
2023/03/29 08:19:42;;;;;;;;;;;;;;;8.52;84.22754;101462.2;;;;-74
2023/03/29 08:24:40;;;;;;;;;;;;;;;8.58;84.49121;101461;;;;-74
2023/03/29 08:29:40;;;;;;;;;;;;;;;8.65;84.68262;101461.5;;;;-73
2023/03/29 08:34:42;;;;;;;;;;;;;;;8.75;84.42578;101449.7;;;;-73
2023/03/29 08:39:40;;;;;;;;;;;;;;;8.85;84.36816;101448.9;;;;-74
2023/03/29 08:44:48;;;;;;;;;;;;;;;8.98;84.43848;101440.5;;;;-74
2023/03/29 08:46:10;;;;;;;18.6;6.7;;;;;;;;;;;;;-73
2023/03/29 08:49:41;;;;;;;;;;;;;;;9.13;84.25684;101441.5;;;;-73
2023/03/29 08:54:43;;;;;;;;;;;;;;;9.34;84.53809;101443.8;;;;-74
2023/03/29 08:59:40;;;;;;;;;;;;;;;9.47;83.79297;101459.3;;;;-75
2023/03/29 09:04:44;;;;;;;;;;;;;;;9.63;83.21777;101461.5;;;;-74
2023/03/29 09:09:41;;;;;;;;;;;;;;;9.73;82.74023;101461.6;;;;-73
2023/03/29 09:14:51;;;;;;;;;;;;;;;9.82;83.00977;101458.8;;;;-75
2023/03/29 09:16:07;;;;;;;17.7;7.2;;;;;;;;;;;;;-75
2023/03/29 09:19:46;;;;;;;;;;;;;;;9.88;83.0791;101453.4;;;;-74
2023/03/29 09:24:46;;;;;;;;;;;;;;;9.93;83.10938;101464.2;;;;-74
2023/03/29 09:29:48;;;;;;;;;;;;;;;10.03;83.2832;101465.3;;;;-78
2023/03/29 09:34:44;;;;;;;;;;;;;;;10.11;83.19727;101471.6;;;;-74
2023/03/29 09:39:41;;;;;;;;;;;;;;;10.21;82.81934;101467.1;;;;-73
2023/03/29 09:44:43;;;;;;;;;;;;;;;10.33;82.2793;101450.1;;;;-75
2023/03/29 09:46:18;;;;;;;17.9;7.7;;;;;;;;;;;;;-74
2023/03/29 09:49:42;;;;;;;;;;;;;;;10.48;82.60547;101444;;;;-74
2023/03/29 09:54:40;;;;;;;;;;;;;;;10.64;82.43555;101447.4;;;;-73
2023/03/29 09:59:40;;;;;;;;;;;;;;;10.79;81.72168;101447.3;;;;-73
2023/03/29 10:04:44;;;;;;;;;;;;;;;10.93;81.4834;101446;;;;-73
2023/03/29 10:09:42;;;;;;;;;;;;;;;11.05;81.65039;101447.9;;;;-74
2023/03/29 10:14:41;;;;;;;;;;;;;;;11.22;81.41504;101438.4;;;;-73
2023/03/29 10:16:11;;;;;;;18.6;9.6;;;;;;;;;;;;;-74
2023/03/29 10:19:40;;;;;;;;;;;;;;;11.35;81.17285;101432.6;;;;-73
2023/03/29 10:24:40;;;;;;;;;;;;;;;11.55;80.79102;101430;;;;-73
2023/03/29 10:29:43;;;;;;;;;;;;;;;11.65;80.97559;101428.8;;;;-74
2023/03/29 10:34:40;;;;;;;;;;;;;;;11.77;;101429.8;;;;-74
2023/03/29 10:39:40;;;;;;;;;;;;;;;11.83;80.12109;101432;;;;-75
2023/03/29 10:44:40;;;;;;;;;;;;;;;11.93;79.80469;101424.7;;;;-73
2023/03/29 10:46:13;;;;;;;23.7;11.7;;;;;;;;;;;;;-73
2023/03/29 10:49:42;;;;;;;;;;;;;;;11.94;79.81738;101423.2;;;;-74
2023/03/29 10:54:40;;;;;;;;;;;;;;;11.96;79.67676;101415.7;;;;-74
2023/03/29 10:59:43;;;;;;;;;;;;;;;11.99;80.03809;101406.9;;;;-74
2023/03/29 11:04:45;;;;;;;;;;;;;;;12.02;80.25586;101403.7;;;;-74
2023/03/29 11:09:44;;;;;;;;;;;;;;;12.21;80.17773;101400.5;;;;-74
2023/03/29 11:14:44;;;;;;;;;;;;;;;12.51;80.12207;101398.2;;;;-72
2023/03/29 11:16:15;;;;;;;23.9;12.7;;;;;;;;;;;;;-74
2023/03/29 11:19:55;;;;;;;;;;;;;;;12.86;78.98535;101400.5;;;;-74
2023/03/29 11:24:54;;;;;;;;;;;;;;;13.11;77.99316;101396.9;;;;-74
2023/03/29 11:29:50;;;;;;;;;;;;;;;13.26;77.68652;101395.2;;;;-75
2023/03/29 11:34:51;;;;;;;;;;;;;;;13.36;77.99414;101397.4;;;;-75
2023/03/29 11:39:48;;;;;;;;;;;;;;;13.54;77.73535;101396.5;;;;-74
2023/03/29 11:44:42;;;;;;;;;;;;;;;13.64;77.21875;101403.3;;;;-74
2023/03/29 11:46:18;;;;;;;21.7;11.9;;;;;;;;;;;;;-74
2023/03/29 11:49:43;;;;;;;;;;;;;;;13.73;76.81055;101401.8;;;;-74
2023/03/29 11:54:43;;;;;;;;;;;;;;;13.83;76.41406;101406.5;;;;-75
2023/03/29 11:59:48;;;;;;;;;;;;;;;13.84;76.58398;101398.3;;;;-74
2023/03/29 12:04:46;;;;;;;;;;;;;;;13.85;76.77441;101375;;;;-75
2023/03/29 12:09:45;;;;;;;;;;;;;;;13.99;76.27441;101375;;;;-75
2023/03/29 12:14:55;;;;;;;;;;;;;;;14.1;76.56152;101373.8;;;;-73
2023/03/29 12:16:16;;;;;;;17.9;9.9;;;;;;;;;;;;;-74
2023/03/29 12:19:43;;;;;;;;;;;;;;;14.11;76.46289;101375;;;;-74
2023/03/29 12:24:44;;;;;;;;;;;;;;;14.15;76.80566;101370.5;;;;-74
2023/03/29 12:29:46;;;;;;;;;;;;;;;14.16;76.87402;101369.1;;;;-72
2023/03/29 12:34:50;;;;;;;;;;;;;;;14.19;76.63281;101359.5;;;;-75
2023/03/29 12:39:43;;;;;;;;;;;;;;;14.16;76.78516;101362.8;;;;-74
2023/03/29 12:44:40;;;;;;;;;;;;;;;14.08;77.18359;101352.8;;;;-75
2023/03/29 12:46:19;;;;;;;14;7.7;;;;;;;;;;;;;-73
2023/03/29 12:49:41;;;;;;;;;;;;;;;13.91;76.59668;101331.8;;;;-73
2023/03/29 12:54:41;;;;;;;;;;;;;;;13.88;77.69434;101322.9;;;;-70
2023/03/29 12:59:49;;;;;;;;;;;;;;;13.88;78.77734;101328.2;;;;-76
2023/03/29 13:04:51;;;;;;;;;;;;;;;13.96;77.76367;101319.8;;;;-74
2023/03/29 13:09:50;;;;;;;;;;;;;;;14;77.77051;101306;;;;-75
2023/03/29 13:14:44;;;;;;;;;;;;;;;14.07;77.14746;101289.8;;;;-75
2023/03/29 13:16:23;;;;;;;13.5;7.7;;;;;;;;;;;;;-74
2023/03/29 13:19:47;;;;;;;;;;;;;;;14.1;76.97461;101296;;;;-75
2023/03/29 13:24:54;;;;;;;;;;;;;;;14.22;77.14063;101281.6;;;;-75
2023/03/29 13:29:54;;;;;;;;;;;;;;;14.37;76.33887;101286;;;;-74
2023/03/29 13:34:49;;;;;;;;;;;;;;;14.38;77.57129;101284.2;;;;-75
2023/03/29 13:39:50;;;;;;;;;;;;;;;14.38;75.86133;101297.8;;;;-73
2023/03/29 13:44:45;;;;;;;;;;;;;;;14.33;76.51172;101294.1;;;;-74
2023/03/29 13:46:39;;;;;;;17.6;11;;;;;;;;;;;;;-75
2023/03/29 13:49:41;;;;;;;;;;;;;;;14.34;76.625;101278.8;;;;-73
2023/03/29 13:54:44;;;;;;;;;;;;;;;14.31;76.08398;101273.3;;;;-76
2023/03/29 13:59:46;;;;;;;;;;;;;;;14.24;76.02832;101260.9;;;;-74
2023/03/29 14:04:53;;;;;;;;;;;;;;;14.27;77.49512;101260.8;;;;-74
2023/03/29 14:09:43;;;;;;;;;;;;;;;14.29;76.34961;101270.1;;;;-75
2023/03/29 14:14:45;;;;;;;;;;;;;;;14.26;76.65723;101271.9;;;;-76
2023/03/29 14:16:20;;;;;;;14.6;8.3;;;;;;;;;;;;;-74
2023/03/29 14:19:41;;;;;;;;;;;;;;;14.19;76.37598;101270.9;;;;-75
2023/03/29 14:24:43;;;;;;;;;;;;;;;14.14;76.37988;101265.7;;;;-74
2023/03/29 14:29:40;;;;;;;;;;;;;;;14.09;77.3418;101265.5;;;;-73
2023/03/29 14:34:40;;;;;;;;;;;;;;;14.01;76.77051;101248.7;;;;-75
2023/03/29 14:39:40;;;;;;;;;;;;;;;13.97;76.82813;101242.9;;;;-75
2023/03/29 14:44:47;;;;;;;;;;;;;;;13.95;77.16016;101230.6;;;;-76
2023/03/29 14:46:26;;;;;;;12.3;7.1;;;;;;;;;;;;;-74
2023/03/29 14:49:45;;;;;;;;;;;;;;;13.94;79.60156;101229.8;;;;-74
2023/03/29 14:54:41;;;;;;;;;;;;;;;13.85;78.13574;101227.1;;;;-75
2023/03/29 14:59:44;;;;;;;;;;;;;;;13.76;78.14355;101217.5;;;;-76
2023/03/29 15:04:47;;;;;;;;;;;;;;;13.69;79.13184;101207.9;;;;-75
2023/03/29 15:09:40;;;;;;;;;;;;;;;13.61;79.23047;101197.7;;;;-76
2023/03/29 15:14:48;;;;;;;;;;;;;;;13.56;80.11426;101184.2;;;;-75
2023/03/29 15:16:25;;;;;;;15.3;8.5;;;;;;;;;;;;;-74
2023/03/29 15:19:44;;;;;;;;;;;;;;;13.52;79.54883;101167;;;;-73
2023/03/29 15:24:44;;;;;;;;;;;;;;;13.49;79.67773;101157.4;;;;-75
2023/03/29 15:29:41;;;;;;;;;;;;;;;13.45;80.25;101153.8;;;;-74
2023/03/29 15:34:41;;;;;;;;;;;;;;;13.47;80.03027;101169.6;;;;-75
2023/03/29 15:39:47;;;;;;;;;;;;;;;13.46;79.97266;101142.4;;;;-74
2023/03/29 15:44:40;;;;;;;;;;;;;;;13.5;80.5459;101139.1;;;;-74
2023/03/29 15:46:27;;;;;;;17.2;9.7;;;;;;;;;;;;;-74
2023/03/29 15:49:46;;;;;;;;;;;;;;;13.44;80.29102;101123.1;;;;-74
2023/03/29 15:54:41;;;;;;;;;;;;;;;13.39;79.9707;101110.5;;;;-74
2023/03/29 15:59:44;;;;;;;;;;;;;;;13.32;80.59277;101090.1;;;;-74
2023/03/29 16:04:40;;;;;;;;;;;;;;;13.25;81.00195;101086.8;;;;-74
2023/03/29 16:09:42;;;;;;;;;;;;;;;13.16;81.88672;101081.1;;;;-73
2023/03/29 16:14:40;;;;;;;;;;;;;;;13.09;82.29785;101068.2;;;;-75
2023/03/29 16:16:31;;;;;;;15.5;9.1;;;;;;;;;;;;;-75
2023/03/29 16:19:39;;;;;;;;;;;;;;;13.02;82.80664;101058.8;;;;-74
2023/03/29 16:24:40;;;;;;;;;;;;;;;12.98;83;101064.1;;;;-75
2023/03/29 16:29:40;;;;;;;;;;;;;;;12.93;83.03418;101056.7;;;;-74
2023/03/29 16:34:46;;;;;;;;;;;;;;;12.87;83.3125;101042.4;;;;-73
2023/03/29 16:39:40;;;;;;;;;;;;;;;12.84;83.66113;101033.5;;;;-74
2023/03/29 16:44:39;;;;;;;;;;;;;;;12.78;83.59375;101035.4;;;;-73
2023/03/29 16:46:30;;;;;;;15.3;9;;;;;;;;;;;;;-75
2023/03/29 16:49:40;;;;;;;;;;;;;;;12.74;83.93066;101042.6;;;;-74
2023/03/29 16:54:41;;;;;;;;;;;;;;;12.68;84.20996;101025.7;;;;-74
2023/03/29 16:59:41;;;;;;;;;;;;;;;12.64;84.16699;101021.3;;;;-75
2023/03/29 17:04:39;;;;;;;;;;;;;;;12.61;84.35059;101010.9;;;;-75
2023/03/29 17:09:40;;;;;;;;;;;;;;;12.57;84.59961;101011;;;;-74
2023/03/29 17:14:40;;;;;;;;;;;;;;;12.53;84.5127;101004.1;;;;-73
2023/03/29 17:16:31;;;;;;;16.5;9.9;;;;;;;;;;;;;-75
2023/03/29 17:19:40;;;;;;;;;;;;;;;12.48;84.81348;100991.4;;;;-74
2023/03/29 17:24:44;;;;;;;;;;;;;;;12.43;85.10547;100983;;;;-74
2023/03/29 17:29:54;;;;;;;;;;;;;;;12.38;85.19531;100973.3;;;;-76
2023/03/29 17:34:49;;;;;;;;;;;;;;;12.35;85.57617;100970.7;;;;-74
2023/03/29 17:39:40;;;;;;;;;;;;;;;12.31;85.125;100971;;;;-75
2023/03/29 17:44:39;;;;;;;;;;;;;;;12.26;85.47168;100962.4;;;;-74
2023/03/29 17:46:33;;;;;;;16.9;10.7;;;;;;;;;;;;;-75
2023/03/29 17:49:40;;;;;;;;;;;;;;;12.22;85.63086;100952;;;;-74
2023/03/29 17:54:40;;;;;;;;;;;;;;;12.16;86.23926;100935.6;;;;-74
2023/03/29 17:59:41;;;;;;;;;;;;;;;12.11;85.97559;100930.9;;;;-75
2023/03/29 18:04:40;;;;;;;;;;;;;;;12.06;85.89648;100925.5;;;;-74
2023/03/29 18:09:40;;;;;;;;;;;;;;;11.98;85.98242;100920.6;;;;-74
2023/03/29 18:14:40;;;;;;;;;;;;;;;11.93;86.52539;100925.5;;;;-75
2023/03/29 18:16:34;;;;;;;16.4;9.6;;;;;;;;;;;;;-74
2023/03/29 18:19:41;;;;;;;;;;;;;;;11.84;86.68457;100910;;;;-75
2023/03/29 18:24:41;;;;;;;;;;;;;;;11.77;86.9707;100914.8;;;;-76
2023/03/29 18:29:40;;;;;;;;;;;;;;;11.69;87.14258;100919.7;;;;-75
2023/03/29 18:34:40;;;;;;;;;;;;;;;11.62;87.13965;100915.9;;;;-74
2023/03/29 18:39:40;;;;;;;;;;;;;;;11.56;87.34863;100916.7;;;;-75
2023/03/29 18:44:39;;;;;;;;;;;;;;;11.51;87.56934;100914.8;;;;-74
2023/03/29 18:46:36;;;;;;;12.6;7.5;;;;;;;;;;;;;-75
2023/03/29 18:49:40;;;;;;;;;;;;;;;11.45;87.64746;100907.6;;;;-74
2023/03/29 18:54:40;;;;;;;;;;;;;;;11.39;87.70313;100905.9;;;;-73
2023/03/29 18:59:39;;;;;;;;;;;;;;;11.34;88.00195;100896.6;;;;-74
2023/03/29 19:04:41;;;;;;;;;;;;;;;11.28;87.92383;100897.4;;;;-74
2023/03/29 19:09:40;;;;;;;;;;;;;;;11.24;88.2373;100894.3;;;;-75
2023/03/29 19:14:40;;;;;;;;;;;;;;;11.2;88.29492;100885.2;;;;-75
2023/03/29 19:16:37;;;;;;;10.9;5.8;;;;;;;;;;;;;-73
2023/03/29 19:19:40;;;;;;;;;;;;;;;11.15;88.52734;100879.5;;;;-75
2023/03/29 19:24:39;;;;;;;;;;;;;;;11.1;88.92871;100871.1;;;;-74
2023/03/29 19:29:39;;;;;;;;;;;;;;;11.06;88.56543;100863.2;;;;-75
2023/03/29 19:34:40;;;;;;;;;;;;;;;11.02;88.67773;100860.5;;;;-74
2023/03/29 19:39:53;;;;;;;;;;;;;;;11;89.02832;100840.7;;;;-74
2023/03/29 19:44:40;;;;;;;;;;;;;;;10.96;88.91016;100830.2;;;;-74
2023/03/29 19:46:39;;;;;;;10.2;5.2;;;;;;;;;;;;;-74
2023/03/29 19:49:40;;;;;;;;;;;;;;;10.95;89.33887;100823.1;;;;-74
2023/03/29 19:54:40;;;;;;;;;;;;;;;10.9;89.05371;100822.7;;;;-75
2023/03/29 19:59:41;;;;;;;;;;;;;;;10.85;89.52832;100814.2;;;;-75
2023/03/29 20:04:40;;;;;;;;;;;;;;;10.79;89.12891;100806.2;;;;-74
2023/03/29 20:09:40;;;;;;;;;;;;;;;10.74;89.35156;100789.3;;;;-74
2023/03/29 20:14:41;;;;;;;;;;;;;;;10.7;89.4541;100777.9;;;;-75
2023/03/29 20:16:44;;;;;;;9.1;5.1;;;;;;;;;;;;;-74
2023/03/29 20:19:42;;;;;;;;;;;;;;;10.67;89.33691;100776;;;;-74
2023/03/29 20:24:40;;;;;;;;;;;;;;;10.62;89.25;100762.2;;;;-75
2023/03/29 20:29:40;;;;;;;;;;;;;;;10.58;89.2627;100749.2;;;;-75
2023/03/29 20:34:40;;;;;;;;;;;;;;;10.56;89.54395;100739;;;;-75
2023/03/29 20:39:39;;;;;;;;;;;;;;;10.55;89.32129;100726;;;;-74
2023/03/29 20:44:39;;;;;;;;;;;;;;;10.54;89.41895;100713.1;;;;-76
2023/03/29 20:46:53;;;;;;;8.9;4.8;;;;;;;;;;;;;-75
2023/03/29 20:49:41;;;;;;;;;;;;;;;10.52;89.34961;100700.4;;;;-74
2023/03/29 20:54:39;;;;;;;;;;;;;;;10.51;89.28125;100687.3;;;;-74
2023/03/29 20:59:40;;;;;;;;;;;;;;;10.52;88.84375;100678.9;;;;-75
2023/03/29 21:04:47;;;;;;;;;;;;;;;10.54;89.02344;100679.1;;;;-75
2023/03/29 21:09:42;;;;;;;;;;;;;;;10.55;89.91895;100667;;;;-75
2023/03/29 21:14:40;;;;;;;;;;;;;;;10.55;89.24609;100667.2;;;;-75
2023/03/29 21:16:43;;;;;;;9.1;5;;;;;;;;;;;;;-75
2023/03/29 21:19:40;;;;;;;;;;;;;;;10.55;89.02539;100668.8;;;;-74
2023/03/29 21:24:39;;;;;;;;;;;;;;;10.55;89.12305;100660;;;;-74
2023/03/29 21:29:40;;;;;;;;;;;;;;;10.56;90.36035;100628.1;;;;-75
2023/03/29 21:34:39;;;;;;;;;;;;;;;10.55;89.26855;100629.6;;;;-74
2023/03/29 21:39:39;;;;;;;;;;;;;;;10.56;90.74902;100616;;;;-74
2023/03/29 21:44:39;;;;;;;;;;;;;;;10.57;92.16211;100624.2;;;;-75
2023/03/29 21:46:43;;;;;;;11.3;5.2;;;;;;;;;;;;;-75
2023/03/29 21:49:42;;;;;;;;;;;;;;;10.6;93.41504;100621.3;;;;-74
2023/03/29 21:54:41;;;;;;;;;;;;;;;10.66;93.70215;100612.4;;;;-75
2023/03/29 21:59:39;;;;;;;;;;;;;;;10.7;94.26367;100617.9;;;;-75
2023/03/29 22:04:42;;;;;;;;;;;;;;;10.73;94.10352;100609.4;;;;-76
2023/03/29 22:09:42;;;;;;;;;;;;;;;10.75;94.48242;100614.4;;;;-74
2023/03/29 22:14:45;;;;;;;;;;;;;;;10.8;94.4834;100612;;;;-76
2023/03/29 22:16:46;;;;;;;11;4.5;;;;;;;;;;;;;-76
2023/03/29 22:19:40;;;;;;;;;;;;;;;10.85;94.51465;100607.9;;;;-75
2023/03/29 22:24:40;;;;;;;;;;;;;;;10.88;94.95117;100602.8;;;;-74
2023/03/29 22:29:40;;;;;;;;;;;;;;;10.87;94.62891;100603.7;;;;-75
2023/03/29 22:34:40;;;;;;;;;;;;;;;10.87;94.25488;100597.6;;;;-74
2023/03/29 22:39:43;;;;;;;;;;;;;;;10.88;94.30078;100597.3;;;;-74
2023/03/29 22:44:40;;;;;;;;;;;;;;;10.83;93.7373;100585.1;;;;-74
2023/03/29 22:46:46;;;;;;;11.8;4.8;;;;;;;;;;;;;-76
2023/03/29 22:49:39;;;;;;;;;;;;;;;10.83;94.30176;100576.6;;;;-73
2023/03/29 22:54:47;;;;;;;;;;;;;;;10.84;94.77832;100569.8;;;;-74
2023/03/29 22:59:40;;;;;;;;;;;;;;;10.87;94.45313;100556.8;;;;-74
2023/03/29 23:04:40;;;;;;;;;;;;;;;10.9;94.42773;100544.5;;;;-74
2023/03/29 23:09:39;;;;;;;;;;;;;;;10.95;94.27246;100542.8;;;;-74
2023/03/29 23:14:41;;;;;;;;;;;;;;;10.97;94.21875;100541.7;;;;-75
2023/03/29 23:16:47;;;;;;;8.9;4.4;;;;;;;;;;;;;-75
2023/03/29 23:19:40;;;;;;;;;;;;;;;10.97;93.86621;100531.3;;;;-75
2023/03/29 23:24:45;;;;;;;;;;;;;;;11;94.00781;100527.1;;;;-76
2023/03/29 23:29:41;;;;;;;;;;;;;;;11.02;93.98828;100525.2;;;;-74
2023/03/29 23:34:40;;;;;;;;;;;;;;;11.05;93.79688;100525.5;;;;-75
2023/03/29 23:39:42;;;;;;;;;;;;;;;11.08;93.81445;100523;;;;-75
2023/03/29 23:44:39;;;;;;;;;;;;;;;11.08;93.46094;100528.6;;;;-74
2023/03/29 23:46:48;;;;;;;9.2;4.3;;;;;;;;;;;;;-76
2023/03/29 23:49:44;;;;;;;;;;;;;;;11.09;93.51953;100533;;;;-75
2023/03/29 23:54:40;;;;;;;;;;;;;;;11.13;93.69141;100541;;;;-75
2023/03/29 23:59:41;;;;;;;;;;;;;;;11.22;93.07031;100537.3;;;;-75
